sensor_id;sensor_type;location;lat;lon;timestamp;temperature;humidity
64961;SHT31;51487;52.266;10.542;2023-10-13T00:01:20;15.00;99.99
64961;SHT31;51487;52.266;10.542;2023-10-13T00:03:46;15.06;99.99
64961;SHT31;51487;52.266;10.542;2023-10-13T00:06:12;15.09;99.99
64961;SHT31;51487;52.266;10.542;2023-10-13T00:08:37;15.07;99.99
64961;SHT31;51487;52.266;10.542;2023-10-13T00:11:05;15.05;99.99
64961;SHT31;51487;52.266;10.542;2023-10-13T00:13:31;15.14;99.99
64961;SHT31;51487;52.266;10.542;2023-10-13T00:16:07;15.10;99.99
64961;SHT31;51487;52.266;10.542;2023-10-13T00:18:35;15.10;99.99
64961;SHT31;51487;52.266;10.542;2023-10-13T00:21:08;15.12;99.99
64961;SHT31;51487;52.266;10.542;2023-10-13T00:23:46;15.09;99.99
64961;SHT31;51487;52.266;10.542;2023-10-13T00:26:23;15.14;99.99
64961;SHT31;51487;52.266;10.542;2023-10-13T00:29:03;15.09;99.99
64961;SHT31;51487;52.266;10.542;2023-10-13T00:31:42;15.09;99.99
64961;SHT31;51487;52.266;10.542;2023-10-13T00:34:12;15.18;99.99
64961;SHT31;51487;52.266;10.542;2023-10-13T00:36:50;15.19;99.99
64961;SHT31;51487;52.266;10.542;2023-10-13T00:39:34;15.26;99.99
64961;SHT31;51487;52.266;10.542;2023-10-13T00:42:05;15.30;99.99
64961;SHT31;51487;52.266;10.542;2023-10-13T00:44:34;15.27;99.99
64961;SHT31;51487;52.266;10.542;2023-10-13T00:47:15;15.34;99.99
64961;SHT31;51487;52.266;10.542;2023-10-13T00:49:59;15.33;99.99
64961;SHT31;51487;52.266;10.542;2023-10-13T00:52:24;15.26;99.99
64961;SHT31;51487;52.266;10.542;2023-10-13T00:54:52;15.34;99.99
64961;SHT31;51487;52.266;10.542;2023-10-13T00:57:19;15.34;99.99
64961;SHT31;51487;52.266;10.542;2023-10-13T00:59:56;15.32;99.99
64961;SHT31;51487;52.266;10.542;2023-10-13T01:02:38;15.36;99.99
64961;SHT31;51487;52.266;10.542;2023-10-13T01:05:04;15.37;99.99
64961;SHT31;51487;52.266;10.542;2023-10-13T01:07:30;15.42;99.99
64961;SHT31;51487;52.266;10.542;2023-10-13T01:09:56;15.43;99.99
64961;SHT31;51487;52.266;10.542;2023-10-13T01:12:22;15.50;99.99
64961;SHT31;51487;52.266;10.542;2023-10-13T01:14:51;15.44;99.99
64961;SHT31;51487;52.266;10.542;2023-10-13T01:17:18;15.47;99.99
64961;SHT31;51487;52.266;10.542;2023-10-13T01:19:43;15.46;99.99
64961;SHT31;51487;52.266;10.542;2023-10-13T01:22:11;15.47;99.99
64961;SHT31;51487;52.266;10.542;2023-10-13T01:24:37;15.55;99.99
64961;SHT31;51487;52.266;10.542;2023-10-13T01:27:04;15.49;99.99
64961;SHT31;51487;52.266;10.542;2023-10-13T01:29:51;15.51;99.99
64961;SHT31;51487;52.266;10.542;2023-10-13T01:32:23;15.57;99.99
64961;SHT31;51487;52.266;10.542;2023-10-13T01:34:48;15.54;99.99
64961;SHT31;51487;52.266;10.542;2023-10-13T01:37:15;15.53;99.99
64961;SHT31;51487;52.266;10.542;2023-10-13T01:39:42;15.57;99.99
64961;SHT31;51487;52.266;10.542;2023-10-13T01:42:07;15.63;99.99
64961;SHT31;51487;52.266;10.542;2023-10-13T01:44:33;15.64;99.99
64961;SHT31;51487;52.266;10.542;2023-10-13T01:47:00;15.70;99.99
64961;SHT31;51487;52.266;10.542;2023-10-13T01:49:32;15.70;99.99
64961;SHT31;51487;52.266;10.542;2023-10-13T01:52:10;15.80;99.99
64961;SHT31;51487;52.266;10.542;2023-10-13T01:54:38;15.74;99.99
64961;SHT31;51487;52.266;10.542;2023-10-13T01:57:07;15.75;99.99
64961;SHT31;51487;52.266;10.542;2023-10-13T01:59:33;15.77;99.99
64961;SHT31;51487;52.266;10.542;2023-10-13T02:01:58;15.80;99.99
64961;SHT31;51487;52.266;10.542;2023-10-13T02:04:27;15.67;99.99
64961;SHT31;51487;52.266;10.542;2023-10-13T02:06:52;15.71;99.99
64961;SHT31;51487;52.266;10.542;2023-10-13T02:09:18;15.68;99.99
64961;SHT31;51487;52.266;10.542;2023-10-13T02:11:52;15.74;99.99
64961;SHT31;51487;52.266;10.542;2023-10-13T02:14:22;15.72;99.99
64961;SHT31;51487;52.266;10.542;2023-10-13T02:16:52;15.81;99.99
64961;SHT31;51487;52.266;10.542;2023-10-13T02:19:37;15.77;99.99
64961;SHT31;51487;52.266;10.542;2023-10-13T02:22:05;15.80;99.99
64961;SHT31;51487;52.266;10.542;2023-10-13T02:24:34;15.85;99.99
64961;SHT31;51487;52.266;10.542;2023-10-13T02:26:59;15.82;99.99
64961;SHT31;51487;52.266;10.542;2023-10-13T02:29:29;15.78;99.99
64961;SHT31;51487;52.266;10.542;2023-10-13T02:31:55;15.78;99.99
64961;SHT31;51487;52.266;10.542;2023-10-13T02:34:22;15.72;99.99
64961;SHT31;51487;52.266;10.542;2023-10-13T02:36:50;15.65;99.99
64961;SHT31;51487;52.266;10.542;2023-10-13T02:39:18;15.63;99.99
64961;SHT31;51487;52.266;10.542;2023-10-13T02:41:50;15.63;99.99
64961;SHT31;51487;52.266;10.542;2023-10-13T02:44:16;15.58;99.99
64961;SHT31;51487;52.266;10.542;2023-10-13T02:46:59;15.53;99.99
64961;SHT31;51487;52.266;10.542;2023-10-13T02:49:29;15.47;99.99
64961;SHT31;51487;52.266;10.542;2023-10-13T02:52:00;15.61;99.99
64961;SHT31;51487;52.266;10.542;2023-10-13T02:54:31;15.53;99.99
64961;SHT31;51487;52.266;10.542;2023-10-13T02:56:57;15.57;99.99
64961;SHT31;51487;52.266;10.542;2023-10-13T02:59:24;15.71;99.99
64961;SHT31;51487;52.266;10.542;2023-10-13T03:02:10;15.68;99.99
64961;SHT31;51487;52.266;10.542;2023-10-13T03:04:54;15.64;99.99
64961;SHT31;51487;52.266;10.542;2023-10-13T03:07:34;15.60;99.99
64961;SHT31;51487;52.266;10.542;2023-10-13T03:10:03;15.64;99.99
64961;SHT31;51487;52.266;10.542;2023-10-13T03:12:36;15.57;99.99
64961;SHT31;51487;52.266;10.542;2023-10-13T03:15:03;15.54;99.99
64961;SHT31;51487;52.266;10.542;2023-10-13T03:17:39;15.46;99.99
64961;SHT31;51487;52.266;10.542;2023-10-13T03:20:18;15.40;99.99
64961;SHT31;51487;52.266;10.542;2023-10-13T03:22:49;15.37;99.99
64961;SHT31;51487;52.266;10.542;2023-10-13T03:25:18;15.42;99.99
64961;SHT31;51487;52.266;10.542;2023-10-13T03:27:58;15.46;99.99
64961;SHT31;51487;52.266;10.542;2023-10-13T03:30:24;15.51;99.99
64961;SHT31;51487;52.266;10.542;2023-10-13T03:33:00;15.49;99.99
64961;SHT31;51487;52.266;10.542;2023-10-13T03:35:26;15.55;99.99
64961;SHT31;51487;52.266;10.542;2023-10-13T03:38:04;15.60;99.99
64961;SHT31;51487;52.266;10.542;2023-10-13T03:40:29;15.60;99.99
64961;SHT31;51487;52.266;10.542;2023-10-13T03:42:59;15.64;99.99
64961;SHT31;51487;52.266;10.542;2023-10-13T03:45:45;15.70;99.99
64961;SHT31;51487;52.266;10.542;2023-10-13T03:48:18;15.71;99.99
64961;SHT31;51487;52.266;10.542;2023-10-13T03:50:58;15.78;99.99
64961;SHT31;51487;52.266;10.542;2023-10-13T03:53:37;15.81;99.99
64961;SHT31;51487;52.266;10.542;2023-10-13T03:56:27;15.82;99.99
64961;SHT31;51487;52.266;10.542;2023-10-13T03:58:58;15.85;99.99
64961;SHT31;51487;52.266;10.542;2023-10-13T04:01:26;15.90;99.99
64961;SHT31;51487;52.266;10.542;2023-10-13T04:04:19;15.92;99.99
64961;SHT31;51487;52.266;10.542;2023-10-13T04:07:05;15.97;99.99
64961;SHT31;51487;52.266;10.542;2023-10-13T04:09:30;16.00;99.99
64961;SHT31;51487;52.266;10.542;2023-10-13T04:12:00;15.98;99.99
64961;SHT31;51487;52.266;10.542;2023-10-13T04:14:26;16.08;99.99
64961;SHT31;51487;52.266;10.542;2023-10-13T04:17:11;16.01;99.99
64961;SHT31;51487;52.266;10.542;2023-10-13T04:19:50;16.05;99.99
64961;SHT31;51487;52.266;10.542;2023-10-13T04:22:42;16.01;99.99
64961;SHT31;51487;52.266;10.542;2023-10-13T04:25:17;16.05;99.99
64961;SHT31;51487;52.266;10.542;2023-10-13T04:28:13;16.06;99.99
64961;SHT31;51487;52.266;10.542;2023-10-13T04:30:49;16.11;99.99
64961;SHT31;51487;52.266;10.542;2023-10-13T04:33:32;16.08;99.99
64961;SHT31;51487;52.266;10.542;2023-10-13T04:36:06;16.11;99.99
64961;SHT31;51487;52.266;10.542;2023-10-13T04:38:56;16.08;99.99
64961;SHT31;51487;52.266;10.542;2023-10-13T04:41:33;16.11;99.99
64961;SHT31;51487;52.266;10.542;2023-10-13T04:44:08;16.12;99.99
64961;SHT31;51487;52.266;10.542;2023-10-13T04:46:53;16.16;99.99
64961;SHT31;51487;52.266;10.542;2023-10-13T04:49:20;16.06;99.99
64961;SHT31;51487;52.266;10.542;2023-10-13T04:52:16;16.09;99.99
64961;SHT31;51487;52.266;10.542;2023-10-13T04:55:14;16.16;99.99
64961;SHT31;51487;52.266;10.542;2023-10-13T04:57:58;16.13;99.99
64961;SHT31;51487;52.266;10.542;2023-10-13T05:00:36;16.09;99.99
64961;SHT31;51487;52.266;10.542;2023-10-13T05:03:19;16.15;99.99
64961;SHT31;51487;52.266;10.542;2023-10-13T05:06:06;16.12;99.99
64961;SHT31;51487;52.266;10.542;2023-10-13T05:08:57;16.19;99.99
64961;SHT31;51487;52.266;10.542;2023-10-13T05:11:41;16.19;99.99
64961;SHT31;51487;52.266;10.542;2023-10-13T05:14:25;16.22;99.99
64961;SHT31;51487;52.266;10.542;2023-10-13T05:17:09;16.23;99.99
64961;SHT31;51487;52.266;10.542;2023-10-13T05:19:57;16.29;99.99
64961;SHT31;51487;52.266;10.542;2023-10-13T05:22:41;16.34;99.99
64961;SHT31;51487;52.266;10.542;2023-10-13T05:25:25;16.34;99.99
64961;SHT31;51487;52.266;10.542;2023-10-13T05:28:09;16.39;99.99
64961;SHT31;51487;52.266;10.542;2023-10-13T05:30:53;16.42;99.99
64961;SHT31;51487;52.266;10.542;2023-10-13T05:33:37;16.43;99.99
64961;SHT31;51487;52.266;10.542;2023-10-13T05:36:21;16.53;99.99
64961;SHT31;51487;52.266;10.542;2023-10-13T05:39:13;16.57;99.89
64961;SHT31;51487;52.266;10.542;2023-10-13T05:42:11;16.55;99.94
64961;SHT31;51487;52.266;10.542;2023-10-13T05:44:55;16.64;99.69
64961;SHT31;51487;52.266;10.542;2023-10-13T05:47:39;16.71;99.66
64961;SHT31;51487;52.266;10.542;2023-10-13T05:50:09;16.71;99.78
64961;SHT31;51487;52.266;10.542;2023-10-13T05:52:58;16.67;99.55
64961;SHT31;51487;52.266;10.542;2023-10-13T05:55:30;16.69;99.53
64961;SHT31;51487;52.266;10.542;2023-10-13T05:58:15;16.67;99.43
64961;SHT31;51487;52.266;10.542;2023-10-13T06:01:00;16.71;99.49
64961;SHT31;51487;52.266;10.542;2023-10-13T06:03:45;16.73;99.51
64961;SHT31;51487;52.266;10.542;2023-10-13T06:06:29;16.76;99.38
64961;SHT31;51487;52.266;10.542;2023-10-13T06:09:13;16.83;99.25
64961;SHT31;51487;52.266;10.542;2023-10-13T06:11:57;16.80;99.16
64961;SHT31;51487;52.266;10.542;2023-10-13T06:14:45;16.83;99.23
64961;SHT31;51487;52.266;10.542;2023-10-13T06:17:29;16.88;99.23
64961;SHT31;51487;52.266;10.542;2023-10-13T06:20:13;16.85;99.43
64961;SHT31;51487;52.266;10.542;2023-10-13T06:22:57;16.87;99.62
64961;SHT31;51487;52.266;10.542;2023-10-13T06:25:41;16.83;99.65
64961;SHT31;51487;52.266;10.542;2023-10-13T06:28:25;16.83;99.58
64961;SHT31;51487;52.266;10.542;2023-10-13T06:31:07;16.90;99.50
64961;SHT31;51487;52.266;10.542;2023-10-13T06:33:36;16.85;99.55
64961;SHT31;51487;52.266;10.542;2023-10-13T06:36:10;16.87;99.62
64961;SHT31;51487;52.266;10.542;2023-10-13T06:38:37;16.91;99.47
64961;SHT31;51487;52.266;10.542;2023-10-13T06:41:06;16.98;99.39
64961;SHT31;51487;52.266;10.542;2023-10-13T06:43:36;17.01;99.16
64961;SHT31;51487;52.266;10.542;2023-10-13T06:46:11;16.98;99.15
64961;SHT31;51487;52.266;10.542;2023-10-13T06:48:49;17.04;99.15
64961;SHT31;51487;52.266;10.542;2023-10-13T06:51:19;17.08;99.34
64961;SHT31;51487;52.266;10.542;2023-10-13T06:53:48;17.06;99.34
64961;SHT31;51487;52.266;10.542;2023-10-13T06:56:15;17.06;99.43
64961;SHT31;51487;52.266;10.542;2023-10-13T06:59:03;17.04;99.34
64961;SHT31;51487;52.266;10.542;2023-10-13T07:01:29;17.06;99.48
64961;SHT31;51487;52.266;10.542;2023-10-13T07:03:55;17.03;99.90
64961;SHT31;51487;52.266;10.542;2023-10-13T07:06:27;17.06;99.99
64961;SHT31;51487;52.266;10.542;2023-10-13T07:08:52;17.04;99.99
64961;SHT31;51487;52.266;10.542;2023-10-13T07:11:25;17.11;99.99
64961;SHT31;51487;52.266;10.542;2023-10-13T07:14:04;17.15;99.99
64961;SHT31;51487;52.266;10.542;2023-10-13T07:16:54;17.18;99.99
64961;SHT31;51487;52.266;10.542;2023-10-13T07:19:23;17.21;99.99
64961;SHT31;51487;52.266;10.542;2023-10-13T07:21:50;17.19;99.99
64961;SHT31;51487;52.266;10.542;2023-10-13T07:24:25;17.24;99.99
64961;SHT31;51487;52.266;10.542;2023-10-13T07:26:51;17.28;99.99
64961;SHT31;51487;52.266;10.542;2023-10-13T07:29:27;17.31;99.99
64961;SHT31;51487;52.266;10.542;2023-10-13T07:31:52;17.34;99.99
64961;SHT31;51487;52.266;10.542;2023-10-13T07:34:18;17.34;99.99
64961;SHT31;51487;52.266;10.542;2023-10-13T07:37:01;17.43;99.99
64961;SHT31;51487;52.266;10.542;2023-10-13T07:39:33;17.40;99.99
64961;SHT31;51487;52.266;10.542;2023-10-13T07:42:04;17.39;99.99
64961;SHT31;51487;52.266;10.542;2023-10-13T07:44:32;17.46;99.99
64961;SHT31;51487;52.266;10.542;2023-10-13T07:47:02;17.48;99.99
64961;SHT31;51487;52.266;10.542;2023-10-13T07:49:31;17.50;99.99
64961;SHT31;51487;52.266;10.542;2023-10-13T07:52:02;17.50;99.99
64961;SHT31;51487;52.266;10.542;2023-10-13T07:54:50;17.48;99.99
64961;SHT31;51487;52.266;10.542;2023-10-13T07:57:39;17.48;99.99
64961;SHT31;51487;52.266;10.542;2023-10-13T08:00:20;17.52;99.99
64961;SHT31;51487;52.266;10.542;2023-10-13T08:03:22;17.62;99.99
64961;SHT31;51487;52.266;10.542;2023-10-13T08:06:07;17.66;99.99
64961;SHT31;51487;52.266;10.542;2023-10-13T08:08:45;17.65;99.99
64961;SHT31;51487;52.266;10.542;2023-10-13T08:11:17;17.62;99.99
64961;SHT31;51487;52.266;10.542;2023-10-13T08:13:53;17.59;99.99
64961;SHT31;51487;52.266;10.542;2023-10-13T08:16:23;17.63;99.99
64961;SHT31;51487;52.266;10.542;2023-10-13T08:18:54;17.66;99.99
64961;SHT31;51487;52.266;10.542;2023-10-13T08:21:21;17.62;99.99
64961;SHT31;51487;52.266;10.542;2023-10-13T08:23:51;17.70;99.99
64961;SHT31;51487;52.266;10.542;2023-10-13T08:26:27;17.75;99.99
64961;SHT31;51487;52.266;10.542;2023-10-13T08:29:03;17.72;99.99
64961;SHT31;51487;52.266;10.542;2023-10-13T08:32:01;17.75;99.99
64961;SHT31;51487;52.266;10.542;2023-10-13T08:34:40;17.75;99.99
64961;SHT31;51487;52.266;10.542;2023-10-13T08:37:26;17.75;99.99
64961;SHT31;51487;52.266;10.542;2023-10-13T08:39:58;17.82;99.99
64961;SHT31;51487;52.266;10.542;2023-10-13T08:42:33;17.89;99.99
64961;SHT31;51487;52.266;10.542;2023-10-13T08:45:11;17.93;99.99
64961;SHT31;51487;52.266;10.542;2023-10-13T08:47:54;17.89;99.99
64961;SHT31;51487;52.266;10.542;2023-10-13T08:53:16;17.96;99.99
64961;SHT31;51487;52.266;10.542;2023-10-13T08:56:12;18.00;99.82
64961;SHT31;51487;52.266;10.542;2023-10-13T08:58:59;18.04;99.29
64961;SHT31;51487;52.266;10.542;2023-10-13T09:01:33;18.04;99.30
64961;SHT31;51487;52.266;10.542;2023-10-13T09:04:17;18.03;99.49
64961;SHT31;51487;52.266;10.542;2023-10-13T09:09:30;18.03;99.51
64961;SHT31;51487;52.266;10.542;2023-10-13T09:14:43;18.01;99.61
64961;SHT31;51487;52.266;10.542;2023-10-13T09:17:12;18.04;99.72
64961;SHT31;51487;52.266;10.542;2023-10-13T09:19:53;18.07;99.58
64961;SHT31;51487;52.266;10.542;2023-10-13T09:22:29;18.11;99.50
64961;SHT31;51487;52.266;10.542;2023-10-13T09:25:05;18.17;99.25
64961;SHT31;51487;52.266;10.542;2023-10-13T09:27:32;18.21;99.41
64961;SHT31;51487;52.266;10.542;2023-10-13T09:30:04;18.26;99.46
64961;SHT31;51487;52.266;10.542;2023-10-13T09:33:03;18.28;99.32
64961;SHT31;51487;52.266;10.542;2023-10-13T09:35:34;18.30;99.05
64961;SHT31;51487;52.266;10.542;2023-10-13T09:38:03;18.44;99.02
64961;SHT31;51487;52.266;10.542;2023-10-13T09:40:30;18.51;98.55
64961;SHT31;51487;52.266;10.542;2023-10-13T09:42:59;18.65;98.45
64961;SHT31;51487;52.266;10.542;2023-10-13T09:45:32;18.81;98.06
64961;SHT31;51487;52.266;10.542;2023-10-13T09:48:37;18.89;97.70
64961;SHT31;51487;52.266;10.542;2023-10-13T09:51:13;19.06;97.36
64961;SHT31;51487;52.266;10.542;2023-10-13T09:53:49;19.17;96.90
64961;SHT31;51487;52.266;10.542;2023-10-13T09:56:25;19.26;96.56
64961;SHT31;51487;52.266;10.542;2023-10-13T09:59:15;19.34;96.60
64961;SHT31;51487;52.266;10.542;2023-10-13T10:01:44;19.44;96.51
64961;SHT31;51487;52.266;10.542;2023-10-13T10:04:18;19.49;96.14
64961;SHT31;51487;52.266;10.542;2023-10-13T10:06:57;19.54;96.08
64961;SHT31;51487;52.266;10.542;2023-10-13T10:09:29;19.60;96.03
64961;SHT31;51487;52.266;10.542;2023-10-13T10:15:34;19.54;95.82
64961;SHT31;51487;52.266;10.542;2023-10-13T10:18:02;19.73;95.37
64961;SHT31;51487;52.266;10.542;2023-10-13T10:20:34;19.89;95.15
64961;SHT31;51487;52.266;10.542;2023-10-13T10:23:28;20.11;94.65
64961;SHT31;51487;52.266;10.542;2023-10-13T10:26:12;20.16;93.82
64961;SHT31;51487;52.266;10.542;2023-10-13T10:28:43;20.22;93.57
64961;SHT31;51487;52.266;10.542;2023-10-13T10:31:13;20.32;93.63
64961;SHT31;51487;52.266;10.542;2023-10-13T10:33:40;20.39;93.33
64961;SHT31;51487;52.266;10.542;2023-10-13T10:36:06;20.43;92.93
64961;SHT31;51487;52.266;10.542;2023-10-13T10:38:37;20.53;92.40
64961;SHT31;51487;52.266;10.542;2023-10-13T10:41:05;20.53;92.39
64961;SHT31;51487;52.266;10.542;2023-10-13T10:46:18;20.76;92.31
64961;SHT31;51487;52.266;10.542;2023-10-13T10:48:45;20.77;91.43
64961;SHT31;51487;52.266;10.542;2023-10-13T10:51:13;20.71;91.95
64961;SHT31;51487;52.266;10.542;2023-10-13T10:53:52;20.71;91.67
64961;SHT31;51487;52.266;10.542;2023-10-13T10:56:23;20.77;90.97
64961;SHT31;51487;52.266;10.542;2023-10-13T10:59:03;20.77;91.23
64961;SHT31;51487;52.266;10.542;2023-10-13T11:01:31;20.70;91.41
64961;SHT31;51487;52.266;10.542;2023-10-13T11:04:05;20.71;90.80
64961;SHT31;51487;52.266;10.542;2023-10-13T11:06:37;20.79;89.90
64961;SHT31;51487;52.266;10.542;2023-10-13T11:09:12;20.80;89.41
64961;SHT31;51487;52.266;10.542;2023-10-13T11:11:47;20.83;89.44
64961;SHT31;51487;52.266;10.542;2023-10-13T11:14:26;20.80;89.32
64961;SHT31;51487;52.266;10.542;2023-10-13T11:16:54;20.81;89.52
64961;SHT31;51487;52.266;10.542;2023-10-13T11:19:42;20.81;89.07
64961;SHT31;51487;52.266;10.542;2023-10-13T11:22:15;20.76;89.70
64961;SHT31;51487;52.266;10.542;2023-10-13T11:25:05;20.77;89.16
64961;SHT31;51487;52.266;10.542;2023-10-13T11:27:38;20.84;88.99
64961;SHT31;51487;52.266;10.542;2023-10-13T11:30:20;20.91;88.85
64961;SHT31;51487;52.266;10.542;2023-10-13T11:33:02;20.83;88.94
64961;SHT31;51487;52.266;10.542;2023-10-13T11:35:39;20.87;88.70
64961;SHT31;51487;52.266;10.542;2023-10-13T11:38:16;20.98;87.38
64961;SHT31;51487;52.266;10.542;2023-10-13T11:41:04;21.01;87.36
64961;SHT31;51487;52.266;10.542;2023-10-13T11:43:30;21.10;85.83
64961;SHT31;51487;52.266;10.542;2023-10-13T11:46:01;21.22;85.80
64961;SHT31;51487;52.266;10.542;2023-10-13T11:48:36;21.28;84.96
64961;SHT31;51487;52.266;10.542;2023-10-13T11:51:06;21.46;84.55
64961;SHT31;51487;52.266;10.542;2023-10-13T11:53:34;21.52;85.40
64961;SHT31;51487;52.266;10.542;2023-10-13T11:56:01;21.46;84.36
64961;SHT31;51487;52.266;10.542;2023-10-13T11:58:26;21.46;83.59
64961;SHT31;51487;52.266;10.542;2023-10-13T12:00:54;21.48;83.77
64961;SHT31;51487;52.266;10.542;2023-10-13T12:03:34;21.48;84.04
64961;SHT31;51487;52.266;10.542;2023-10-13T12:06:18;21.48;84.03
64961;SHT31;51487;52.266;10.542;2023-10-13T12:08:48;21.48;84.05
64961;SHT31;51487;52.266;10.542;2023-10-13T12:11:18;21.52;84.28
64961;SHT31;51487;52.266;10.542;2023-10-13T12:13:56;21.59;84.65
64961;SHT31;51487;52.266;10.542;2023-10-13T12:16:22;21.60;83.81
64961;SHT31;51487;52.266;10.542;2023-10-13T12:18:48;21.60;83.82
64961;SHT31;51487;52.266;10.542;2023-10-13T12:21:21;21.73;83.28
64961;SHT31;51487;52.266;10.542;2023-10-13T12:23:47;21.75;84.14
64961;SHT31;51487;52.266;10.542;2023-10-13T12:26:13;21.82;83.59
64961;SHT31;51487;52.266;10.542;2023-10-13T12:28:46;21.83;83.40
64961;SHT31;51487;52.266;10.542;2023-10-13T12:31:17;21.90;83.39
64961;SHT31;51487;52.266;10.542;2023-10-13T12:33:43;21.83;83.40
64961;SHT31;51487;52.266;10.542;2023-10-13T12:36:13;21.79;83.86
64961;SHT31;51487;52.266;10.542;2023-10-13T12:38:39;21.76;83.83
64961;SHT31;51487;52.266;10.542;2023-10-13T12:41:20;21.76;83.46
64961;SHT31;51487;52.266;10.542;2023-10-13T12:44:24;21.83;83.12
64961;SHT31;51487;52.266;10.542;2023-10-13T12:47:08;21.85;82.51
64961;SHT31;51487;52.266;10.542;2023-10-13T12:49:52;21.92;82.16
64961;SHT31;51487;52.266;10.542;2023-10-13T12:52:23;22.01;81.67
64961;SHT31;51487;52.266;10.542;2023-10-13T12:54:52;22.06;81.44
64961;SHT31;51487;52.266;10.542;2023-10-13T12:57:21;22.11;81.10
64961;SHT31;51487;52.266;10.542;2023-10-13T12:59:51;22.13;81.22
64961;SHT31;51487;52.266;10.542;2023-10-13T13:02:21;22.21;81.49
64961;SHT31;51487;52.266;10.542;2023-10-13T13:04:47;22.21;81.48
64961;SHT31;51487;52.266;10.542;2023-10-13T13:07:20;22.17;81.25
64961;SHT31;51487;52.266;10.542;2023-10-13T13:09:45;22.09;81.50
64961;SHT31;51487;52.266;10.542;2023-10-13T13:12:11;22.07;81.82
64961;SHT31;51487;52.266;10.542;2023-10-13T13:14:38;21.97;81.58
64961;SHT31;51487;52.266;10.542;2023-10-13T13:17:06;21.86;81.83
64961;SHT31;51487;52.266;10.542;2023-10-13T13:19:34;21.78;81.21
64961;SHT31;51487;52.266;10.542;2023-10-13T13:22:09;21.73;81.79
64961;SHT31;51487;52.266;10.542;2023-10-13T13:24:41;21.76;82.16
64961;SHT31;51487;52.266;10.542;2023-10-13T13:27:15;21.89;80.56
64961;SHT31;51487;52.266;10.542;2023-10-13T13:29:44;21.96;80.33
64961;SHT31;51487;52.266;10.542;2023-10-13T13:32:10;22.00;80.83
64961;SHT31;51487;52.266;10.542;2023-10-13T13:34:45;22.13;80.47
64961;SHT31;51487;52.266;10.542;2023-10-13T13:37:18;22.20;80.30
64961;SHT31;51487;52.266;10.542;2023-10-13T13:39:45;22.22;79.45
64961;SHT31;51487;52.266;10.542;2023-10-13T13:42:11;22.27;79.31
64961;SHT31;51487;52.266;10.542;2023-10-13T13:44:46;22.17;79.84
64961;SHT31;51487;52.266;10.542;2023-10-13T13:47:13;22.14;79.55
64961;SHT31;51487;52.266;10.542;2023-10-13T13:49:45;22.07;79.19
64961;SHT31;51487;52.266;10.542;2023-10-13T13:52:20;22.11;78.98
64961;SHT31;51487;52.266;10.542;2023-10-13T13:54:59;22.18;79.50
64961;SHT31;51487;52.266;10.542;2023-10-13T13:57:28;22.11;79.33
64961;SHT31;51487;52.266;10.542;2023-10-13T13:59:55;22.10;79.11
64961;SHT31;51487;52.266;10.542;2023-10-13T14:02:23;22.04;79.46
64961;SHT31;51487;52.266;10.542;2023-10-13T14:04:49;22.10;79.36
64961;SHT31;51487;52.266;10.542;2023-10-13T14:07:18;22.10;79.14
64961;SHT31;51487;52.266;10.542;2023-10-13T14:09:49;22.17;78.84
64961;SHT31;51487;52.266;10.542;2023-10-13T14:12:20;22.16;79.42
64961;SHT31;51487;52.266;10.542;2023-10-13T14:15:02;22.16;79.02
64961;SHT31;51487;52.266;10.542;2023-10-13T14:17:28;22.21;79.23
64961;SHT31;51487;52.266;10.542;2023-10-13T14:20:01;22.21;78.92
64961;SHT31;51487;52.266;10.542;2023-10-13T14:22:44;22.22;78.80
64961;SHT31;51487;52.266;10.542;2023-10-13T14:25:13;22.25;78.49
64961;SHT31;51487;52.266;10.542;2023-10-13T14:27:42;22.22;78.64
64961;SHT31;51487;52.266;10.542;2023-10-13T14:30:08;22.18;78.63
64961;SHT31;51487;52.266;10.542;2023-10-13T14:32:34;22.13;78.88
64961;SHT31;51487;52.266;10.542;2023-10-13T14:35:06;22.10;79.10
64961;SHT31;51487;52.266;10.542;2023-10-13T14:37:40;22.04;78.90
64961;SHT31;51487;52.266;10.542;2023-10-13T14:40:06;21.99;79.26
64961;SHT31;51487;52.266;10.542;2023-10-13T14:42:38;21.97;78.84
64961;SHT31;51487;52.266;10.542;2023-10-13T14:45:07;21.87;79.40
64961;SHT31;51487;52.266;10.542;2023-10-13T14:47:42;21.82;79.61
64961;SHT31;51487;52.266;10.542;2023-10-13T14:50:09;21.80;79.35
64961;SHT31;51487;52.266;10.542;2023-10-13T14:52:44;21.76;79.98
64961;SHT31;51487;52.266;10.542;2023-10-13T14:55:10;21.67;80.59
64961;SHT31;51487;52.266;10.542;2023-10-13T14:57:48;21.69;79.92
64961;SHT31;51487;52.266;10.542;2023-10-13T15:00:15;21.67;80.14
64961;SHT31;51487;52.266;10.542;2023-10-13T15:02:53;21.60;80.08
64961;SHT31;51487;52.266;10.542;2023-10-13T15:05:18;21.59;80.08
64961;SHT31;51487;52.266;10.542;2023-10-13T15:07:44;21.58;80.02
64961;SHT31;51487;52.266;10.542;2023-10-13T15:10:15;21.50;80.44
64961;SHT31;51487;52.266;10.542;2023-10-13T15:12:44;21.46;80.85
64961;SHT31;51487;52.266;10.542;2023-10-13T15:15:14;21.43;80.37
64961;SHT31;51487;52.266;10.542;2023-10-13T15:17:43;21.46;80.40
64961;SHT31;51487;52.266;10.542;2023-10-13T15:20:09;21.45;80.48
64961;SHT31;51487;52.266;10.542;2023-10-13T15:22:36;21.41;80.90
64961;SHT31;51487;52.266;10.542;2023-10-13T15:25:05;21.34;80.86
64961;SHT31;51487;52.266;10.542;2023-10-13T15:27:47;21.32;81.17
64961;SHT31;51487;52.266;10.542;2023-10-13T15:30:23;21.32;80.61
64961;SHT31;51487;52.266;10.542;2023-10-13T15:32:52;21.28;80.72
64961;SHT31;51487;52.266;10.542;2023-10-13T15:35:20;21.32;80.25
64961;SHT31;51487;52.266;10.542;2023-10-13T15:37:49;21.31;80.61
64961;SHT31;51487;52.266;10.542;2023-10-13T15:40:17;21.35;80.28
64961;SHT31;51487;52.266;10.542;2023-10-13T15:42:43;21.29;80.30
64961;SHT31;51487;52.266;10.542;2023-10-13T15:45:11;21.35;80.02
64961;SHT31;51487;52.266;10.542;2023-10-13T15:47:45;21.41;79.28
64961;SHT31;51487;52.266;10.542;2023-10-13T15:50:15;21.39;79.76
64961;SHT31;51487;52.266;10.542;2023-10-13T15:52:42;21.41;79.30
64961;SHT31;51487;52.266;10.542;2023-10-13T15:55:15;21.38;79.50
64961;SHT31;51487;52.266;10.542;2023-10-13T15:57:43;21.42;78.92
64961;SHT31;51487;52.266;10.542;2023-10-13T16:00:12;21.34;79.74
64961;SHT31;51487;52.266;10.542;2023-10-13T16:02:56;21.35;79.50
64961;SHT31;51487;52.266;10.542;2023-10-13T16:05:33;21.29;79.54
64961;SHT31;51487;52.266;10.542;2023-10-13T16:08:03;21.25;79.80
64961;SHT31;51487;52.266;10.542;2023-10-13T16:10:29;21.18;80.09
64961;SHT31;51487;52.266;10.542;2023-10-13T16:12:54;21.15;80.05